createdAt,value
2023-03-25T00:01:16.585Z,8.60
2023-03-25T00:03:43.582Z,8.50
2023-03-25T00:06:12.721Z,8.50
2023-03-25T00:08:40.822Z,8.50
2023-03-25T00:11:08.855Z,8.50
2023-03-25T00:13:38.570Z,8.50
2023-03-25T00:16:05.773Z,8.50
2023-03-25T00:18:32.554Z,8.40
2023-03-25T00:21:01.266Z,8.40
2023-03-25T00:23:29.764Z,8.40
2023-03-25T00:25:56.686Z,8.40
2023-03-25T00:28:23.483Z,8.40
2023-03-25T00:30:50.277Z,8.40
2023-03-25T00:33:16.982Z,8.30
2023-03-25T00:35:43.634Z,8.30
2023-03-25T00:38:13.473Z,8.30
2023-03-25T00:40:40.510Z,8.30
2023-03-25T00:43:07.471Z,8.30
2023-03-25T00:45:34.575Z,8.30
2023-03-25T00:48:01.303Z,8.20
2023-03-25T00:50:28.060Z,8.20
2023-03-25T00:52:54.793Z,8.20
2023-03-25T00:55:22.074Z,8.10
2023-03-25T00:57:49.016Z,8.10
2023-03-25T01:00:18.772Z,8.10
2023-03-25T01:02:45.686Z,8.10
2023-03-25T01:05:12.638Z,8.10
2023-03-25T01:07:40.843Z,8.10
2023-03-25T01:10:08.895Z,8.00
2023-03-25T01:12:37.089Z,8.00
2023-03-25T01:15:04.049Z,8.00
2023-03-25T01:17:31.978Z,8.00
2023-03-25T01:20:00.222Z,8.00
2023-03-25T01:22:27.776Z,8.00
2023-03-25T01:24:56.021Z,7.90
2023-03-25T01:27:24.073Z,7.90
2023-03-25T01:29:51.498Z,7.90
2023-03-25T01:32:19.280Z,7.90
2023-03-25T01:34:47.734Z,7.90
2023-03-25T01:37:14.471Z,7.90
2023-03-25T01:39:44.295Z,7.90
2023-03-25T01:42:17.927Z,7.80
2023-03-25T01:44:47.363Z,7.90
2023-03-25T01:47:15.684Z,7.90
2023-03-25T01:49:44.660Z,7.80
2023-03-25T01:52:19.283Z,7.90
2023-03-25T01:54:50.700Z,7.90
2023-03-25T01:57:21.939Z,7.90
2023-03-25T01:59:50.358Z,7.90
2023-03-25T02:02:18.957Z,7.90
2023-03-25T02:04:50.618Z,7.90
2023-03-25T02:07:18.721Z,7.90
2023-03-25T02:09:45.440Z,7.80
2023-03-25T02:12:13.724Z,7.80
2023-03-25T02:14:40.502Z,7.80
2023-03-25T02:17:35.226Z,7.80
2023-03-25T02:20:24.483Z,7.80
2023-03-25T02:23:09.261Z,7.80
2023-03-25T02:26:00.881Z,7.90
2023-03-25T02:28:45.842Z,7.90
2023-03-25T02:31:32.089Z,8.00
2023-03-25T02:34:49.965Z,8.00
2023-03-25T02:37:36.761Z,8.00
2023-03-25T02:40:06.032Z,8.00
2023-03-25T02:42:35.806Z,8.00
2023-03-25T02:45:15.731Z,8.00
2023-03-25T02:47:47.170Z,8.10
2023-03-25T02:50:33.732Z,8.00
2023-03-25T02:53:08.256Z,8.10
2023-03-25T02:55:45.496Z,8.00
2023-03-25T02:58:17.097Z,8.00
2023-03-25T03:00:46.198Z,8.00
2023-03-25T03:03:13.099Z,8.00
2023-03-25T03:05:50.434Z,8.00
2023-03-25T03:08:36.078Z,8.00
2023-03-25T03:11:26.816Z,8.00
2023-03-25T03:13:59.430Z,8.10
2023-03-25T03:16:48.086Z,8.10
2023-03-25T03:19:31.856Z,8.10
2023-03-25T03:22:21.608Z,8.10
2023-03-25T03:24:55.089Z,8.20
2023-03-25T03:27:52.737Z,8.20
2023-03-25T03:30:39.660Z,8.20
2023-03-25T03:33:33.705Z,8.20
2023-03-25T03:36:18.811Z,8.20
2023-03-25T03:38:53.068Z,8.10
2023-03-25T03:41:23.790Z,8.10
2023-03-25T03:43:58.051Z,8.00
2023-03-25T03:46:29.659Z,8.00
2023-03-25T03:48:58.753Z,7.90
2023-03-25T03:51:28.454Z,7.90
2023-03-25T03:54:01.217Z,7.90
2023-03-25T03:56:48.373Z,7.90
2023-03-25T04:00:07.359Z,7.90
2023-03-25T04:02:59.298Z,7.80
2023-03-25T04:05:27.256Z,7.80
2023-03-25T04:07:58.490Z,7.80
2023-03-25T04:10:51.139Z,7.80
2023-03-25T04:13:22.040Z,7.70
2023-03-25T04:15:50.396Z,7.70
2023-03-25T04:18:17.829Z,7.70
2023-03-25T04:20:46.724Z,7.70
2023-03-25T04:23:17.860Z,7.70
2023-03-25T04:25:45.620Z,7.70
2023-03-25T04:28:12.268Z,7.70
2023-03-25T04:30:40.227Z,7.60
2023-03-25T04:33:07.368Z,7.70
2023-03-25T04:35:34.102Z,7.70
2023-03-25T04:38:00.802Z,7.70
2023-03-25T04:40:27.556Z,7.70
2023-03-25T04:42:54.272Z,7.70
2023-03-25T04:45:20.964Z,7.80
2023-03-25T04:47:49.501Z,7.80
2023-03-25T04:50:26.900Z,7.80
2023-03-25T04:52:54.686Z,7.80
2023-03-25T04:55:21.900Z,7.80
2023-03-25T04:57:50.707Z,7.80
2023-03-25T05:00:19.950Z,7.80
2023-03-25T05:02:51.820Z,7.80
2023-03-25T05:05:21.075Z,7.80
2023-03-25T05:07:50.217Z,7.70
2023-03-25T05:10:18.552Z,7.70
2023-03-25T05:12:45.560Z,7.70
2023-03-25T05:15:13.375Z,7.70
2023-03-25T05:17:40.506Z,7.70
2023-03-25T05:20:07.804Z,7.60
2023-03-25T05:22:35.093Z,7.60
2023-03-25T05:25:01.777Z,7.60
2023-03-25T05:27:29.361Z,7.60
2023-03-25T05:29:56.986Z,7.60
2023-03-25T05:32:27.914Z,7.60
2023-03-25T05:34:54.589Z,7.60
2023-03-25T05:37:21.277Z,7.60
2023-03-25T05:39:48.053Z,7.60
2023-03-25T05:42:15.000Z,7.60
2023-03-25T05:44:43.065Z,7.60
2023-03-25T05:47:09.758Z,7.60
2023-03-25T05:49:36.592Z,7.70
2023-03-25T05:52:04.678Z,7.70
2023-03-25T05:54:31.319Z,7.70
2023-03-25T05:56:59.270Z,7.70
2023-03-25T05:59:26.179Z,7.80
2023-03-25T06:01:55.493Z,7.90
2023-03-25T06:04:31.394Z,7.90
2023-03-25T06:06:59.390Z,8.00
2023-03-25T06:09:26.124Z,8.00
2023-03-25T06:11:52.798Z,8.00
2023-03-25T06:14:19.542Z,8.00
2023-03-25T06:16:49.224Z,8.10
2023-03-25T06:19:18.257Z,8.10
2023-03-25T06:21:48.309Z,8.20
2023-03-25T06:24:15.046Z,8.20
2023-03-25T06:26:42.946Z,8.20
2023-03-25T06:29:11.159Z,8.10
2023-03-25T06:31:39.975Z,8.20
2023-03-25T06:34:15.886Z,8.20
2023-03-25T06:36:43.768Z,8.20
2023-03-25T06:39:11.897Z,8.20
2023-03-25T06:41:39.961Z,8.20
2023-03-25T06:44:08.184Z,8.20
2023-03-25T06:46:34.892Z,8.30
2023-03-25T06:49:01.635Z,8.30
2023-03-25T06:51:28.528Z,8.30
2023-03-25T06:53:55.311Z,8.30
2023-03-25T06:56:22.010Z,8.30
2023-03-25T06:58:48.672Z,8.30
2023-03-25T07:01:15.468Z,8.30
2023-03-25T07:03:42.467Z,8.40
2023-03-25T07:06:19.605Z,8.30
2023-03-25T07:08:47.233Z,8.30
2023-03-25T07:11:16.192Z,8.30
2023-03-25T07:13:42.913Z,8.20
2023-03-25T07:16:10.525Z,8.20
2023-03-25T07:18:41.362Z,8.20
2023-03-25T07:21:08.220Z,8.20
2023-03-25T07:23:34.909Z,8.30
2023-03-25T07:26:01.662Z,8.30
2023-03-25T07:28:28.438Z,8.30
2023-03-25T07:30:55.154Z,8.40
2023-03-25T07:33:21.829Z,8.40
2023-03-25T07:35:48.958Z,8.50
2023-03-25T07:38:15.871Z,8.50
2023-03-25T07:40:43.057Z,8.60
2023-03-25T07:43:17.319Z,8.60
2023-03-25T07:45:44.811Z,8.70
2023-03-25T07:48:12.949Z,8.80
2023-03-25T07:50:41.800Z,8.80
2023-03-25T07:53:09.004Z,8.90
2023-03-25T07:55:37.006Z,8.90
2023-03-25T07:58:03.743Z,9.00
2023-03-25T08:00:33.641Z,9.10
2023-03-25T08:03:03.148Z,9.10
2023-03-25T08:05:38.119Z,9.10
2023-03-25T08:08:08.613Z,9.20
2023-03-25T08:10:35.671Z,9.30
2023-03-25T08:13:02.615Z,9.40
2023-03-25T08:15:32.583Z,9.40
2023-03-25T08:18:03.031Z,9.50
2023-03-25T08:20:35.318Z,9.60
2023-03-25T08:23:03.184Z,9.60
2023-03-25T08:25:33.178Z,9.60
2023-03-25T08:28:01.143Z,9.70
2023-03-25T08:30:29.513Z,9.80
2023-03-25T08:32:57.957Z,9.80
2023-03-25T08:35:26.996Z,9.90
2023-03-25T08:37:53.765Z,9.90
2023-03-25T08:40:24.165Z,10.00
2023-03-25T08:42:54.628Z,10.00
2023-03-25T08:45:22.746Z,10.00
2023-03-25T08:47:49.605Z,10.00
2023-03-25T08:50:17.836Z,10.00
2023-03-25T08:52:44.908Z,10.10
2023-03-25T08:55:12.449Z,10.20
2023-03-25T08:57:41.699Z,10.30
2023-03-25T09:00:16.227Z,10.40
2023-03-25T09:02:46.141Z,10.40
2023-03-25T09:05:13.764Z,10.50
2023-03-25T09:07:43.603Z,10.50
2023-03-25T09:10:12.031Z,10.50
2023-03-25T09:12:41.507Z,10.50
2023-03-25T09:15:14.537Z,10.50
2023-03-25T09:17:48.501Z,10.50
2023-03-25T09:20:16.460Z,10.50
2023-03-25T09:22:55.492Z,10.50
2023-03-25T09:25:25.464Z,10.50
2023-03-25T09:27:59.732Z,10.70
2023-03-25T09:30:32.102Z,10.70
2023-03-25T09:32:58.989Z,10.80
2023-03-25T09:35:28.819Z,10.70
2023-03-25T09:38:02.502Z,10.80
2023-03-25T09:40:43.736Z,10.70
2023-03-25T09:43:50.667Z,10.80
2023-03-25T09:46:20.174Z,10.80
2023-03-25T09:49:01.261Z,10.60
2023-03-25T09:51:38.592Z,10.60
2023-03-25T09:54:31.219Z,10.50
2023-03-25T09:57:04.913Z,10.50
2023-03-25T09:59:58.429Z,10.50
2023-03-25T10:02:45.935Z,10.50
2023-03-25T10:05:36.280Z,10.40
2023-03-25T10:11:13.126Z,10.50
2023-03-25T10:14:02.854Z,10.60
2023-03-25T10:17:08.659Z,10.60
2023-03-25T10:20:19.019Z,10.70
2023-03-25T10:23:46.758Z,10.80
2023-03-25T10:26:40.312Z,10.70
2023-03-25T10:29:26.985Z,10.70
2023-03-25T10:32:02.021Z,10.70
2023-03-25T10:34:43.834Z,10.70
2023-03-25T10:37:14.973Z,10.60
2023-03-25T10:39:45.664Z,10.60
2023-03-25T10:42:32.151Z,10.60
2023-03-25T10:45:02.501Z,10.80
2023-03-25T10:47:39.185Z,10.90
2023-03-25T10:50:06.886Z,10.90
2023-03-25T10:52:40.339Z,10.90
2023-03-25T10:55:34.434Z,11.10
2023-03-25T10:58:02.848Z,11.10
2023-03-25T11:00:30.951Z,11.10
2023-03-25T11:02:59.171Z,11.10
2023-03-25T11:05:29.977Z,11.20
2023-03-25T11:08:03.075Z,11.40
2023-03-25T11:10:37.546Z,11.60
2023-03-25T11:13:17.589Z,11.70
2023-03-25T11:15:45.828Z,11.60
2023-03-25T11:18:33.308Z,11.60
2023-03-25T11:21:29.700Z,11.70
2023-03-25T11:24:07.547Z,11.70
2023-03-25T11:26:45.475Z,11.80
2023-03-25T11:29:23.385Z,11.80
2023-03-25T11:32:25.438Z,11.90
2023-03-25T11:34:55.747Z,11.80
2023-03-25T11:37:25.633Z,11.80
2023-03-25T11:39:56.373Z,11.70
2023-03-25T11:42:38.019Z,11.60
2023-03-25T11:45:35.773Z,11.70
2023-03-25T11:48:26.442Z,11.60
2023-03-25T11:51:05.706Z,11.50
2023-03-25T11:53:44.175Z,11.40
2023-03-25T11:56:22.172Z,11.20
2023-03-25T11:58:51.523Z,11.20
2023-03-25T12:01:39.719Z,11.30
2023-03-25T12:04:26.954Z,11.40
2023-03-25T12:07:14.675Z,11.60
2023-03-25T12:09:55.831Z,11.80
2023-03-25T12:12:53.391Z,11.80
2023-03-25T12:19:07.124Z,12.10
2023-03-25T12:21:53.071Z,12.00
2023-03-25T12:24:44.659Z,11.90
2023-03-25T12:27:24.194Z,12.10
2023-03-25T12:30:15.946Z,12.20
2023-03-25T12:32:51.404Z,12.20
2023-03-25T12:35:40.616Z,12.00
2023-03-25T12:38:35.692Z,12.10
2023-03-25T12:41:26.382Z,12.20
2023-03-25T12:44:11.120Z,12.30
2023-03-25T12:47:35.323Z,12.20
2023-03-25T12:50:36.126Z,12.20
2023-03-25T12:53:08.898Z,12.40
2023-03-25T12:55:44.541Z,12.60
2023-03-25T12:58:21.898Z,12.70
2023-03-25T13:01:29.586Z,12.70
2023-03-25T13:04:16.617Z,12.70
2023-03-25T13:57:35.381Z,8.10
2023-03-25T14:00:17.506Z,8.10
2023-03-25T14:03:47.967Z,8.10
2023-03-25T14:14:44.702Z,8.60
2023-03-25T14:25:15.561Z,8.80
2023-03-25T14:27:50.626Z,9.00
2023-03-25T14:30:28.708Z,9.30
2023-03-25T14:32:57.724Z,9.40
2023-03-25T14:35:39.340Z,9.60
2023-03-25T14:38:09.251Z,9.80
2023-03-25T14:40:54.573Z,10.00
2023-03-25T14:43:39.883Z,10.10
2023-03-25T14:46:14.013Z,10.10
2023-03-25T14:49:03.790Z,10.20
2023-03-25T14:51:30.986Z,10.30
2023-03-25T14:54:14.634Z,10.40
2023-03-25T14:57:01.825Z,10.70
2023-03-25T14:59:37.627Z,10.80
2023-03-25T15:02:14.200Z,10.90
2023-03-25T15:04:43.034Z,11.00
2023-03-25T15:07:18.427Z,11.00
2023-03-25T15:09:51.145Z,11.00
2023-03-25T15:12:21.785Z,11.20
2023-03-25T15:14:50.805Z,11.30
2023-03-25T15:17:43.740Z,11.40
2023-03-25T15:20:23.393Z,11.50
2023-03-25T15:23:32.742Z,11.70
2023-03-25T15:26:02.101Z,11.80
2023-03-25T15:28:47.634Z,12.00
2023-03-25T15:31:35.077Z,12.10
2023-03-25T15:34:10.497Z,12.20
2023-03-25T15:37:08.378Z,12.30
2023-03-25T15:40:06.566Z,12.30
2023-03-25T15:43:36.514Z,12.20
2023-03-25T15:46:31.626Z,12.20
2023-03-25T15:49:04.452Z,12.20
2023-03-25T15:52:17.147Z,12.20
2023-03-25T15:55:03.542Z,12.10
2023-03-25T15:57:57.845Z,12.00
2023-03-25T16:00:27.243Z,11.80
2023-03-25T16:03:05.433Z,11.40
2023-03-25T16:05:37.045Z,11.20
2023-03-25T16:08:44.672Z,11.00
2023-03-25T16:11:31.833Z,10.90
2023-03-25T16:14:07.035Z,10.70
2023-03-25T16:16:39.253Z,10.60
2023-03-25T16:19:13.961Z,10.50
2023-03-25T16:21:41.217Z,10.50
2023-03-25T16:24:12.635Z,10.50
2023-03-25T16:26:46.222Z,10.30
2023-03-25T16:29:21.753Z,10.10
2023-03-25T16:31:57.147Z,9.90
2023-03-25T16:34:28.562Z,9.60
2023-03-25T16:36:57.080Z,9.40
2023-03-25T16:39:26.210Z,9.30
2023-03-25T16:42:02.590Z,9.20
2023-03-25T16:44:30.984Z,9.20
2023-03-25T16:46:59.139Z,9.00
2023-03-25T16:49:37.292Z,9.00
2023-03-25T16:52:12.738Z,9.00
2023-03-25T16:55:07.429Z,9.00
2023-03-25T16:57:38.108Z,9.00
2023-03-25T17:00:18.740Z,9.00
2023-03-25T17:02:47.278Z,9.00
2023-03-25T17:05:21.499Z,9.00
2023-03-25T17:08:00.808Z,9.00
2023-03-25T17:10:48.705Z,8.90
2023-03-25T17:13:43.591Z,9.00
2023-03-25T17:16:11.668Z,8.90
2023-03-25T17:18:39.261Z,9.00
2023-03-25T17:21:11.798Z,9.00
2023-03-25T17:23:45.656Z,9.00
2023-03-25T17:26:17.645Z,9.00
2023-03-25T17:28:50.664Z,9.00
2023-03-25T17:31:31.549Z,9.00
2023-03-25T17:34:04.108Z,8.90
2023-03-25T17:36:32.681Z,8.90
2023-03-25T17:39:03.807Z,8.80
2023-03-25T17:41:37.552Z,8.70
2023-03-25T17:44:05.484Z,8.70
2023-03-25T17:46:33.420Z,8.60
2023-03-25T17:49:00.448Z,8.60
2023-03-25T17:51:30.990Z,8.60
2023-03-25T17:53:58.109Z,8.60
2023-03-25T17:56:28.644Z,8.50
2023-03-25T17:59:01.433Z,8.50
2023-03-25T18:01:31.367Z,8.50
2023-03-25T18:03:58.549Z,8.60
2023-03-25T18:06:25.845Z,8.60
2023-03-25T18:08:52.789Z,8.60
2023-03-25T18:11:20.597Z,8.60
2023-03-25T18:13:47.452Z,8.60
2023-03-25T18:16:21.513Z,8.60
2023-03-25T18:18:49.744Z,8.60
2023-03-25T18:21:17.761Z,8.60
2023-03-25T18:23:44.608Z,8.60
2023-03-25T18:26:17.257Z,8.60
2023-03-25T18:28:47.975Z,8.70
2023-03-25T18:31:17.080Z,8.60
2023-03-25T18:33:48.397Z,8.60
2023-03-25T18:36:17.814Z,8.70
2023-03-25T18:38:47.142Z,8.70
2023-03-25T18:41:16.655Z,8.80
2023-03-25T18:43:44.358Z,8.80
2023-03-25T18:46:23.937Z,8.80
2023-03-25T18:48:53.022Z,8.80
2023-03-25T18:51:19.948Z,8.80
2023-03-25T18:53:47.468Z,8.80
2023-03-25T18:56:14.358Z,8.80
2023-03-25T18:58:41.572Z,8.70
2023-03-25T19:01:13.362Z,8.70
2023-03-25T19:03:40.702Z,8.80
2023-03-25T19:06:18.142Z,8.70
2023-03-25T19:08:48.058Z,8.70
2023-03-25T19:11:21.888Z,8.70
2023-03-25T19:13:52.501Z,8.70
2023-03-25T19:16:22.163Z,8.70
2023-03-25T19:18:49.122Z,8.70
2023-03-25T19:21:18.379Z,8.70
2023-03-25T19:23:45.898Z,8.70
2023-03-25T19:26:14.681Z,8.70
2023-03-25T19:28:45.052Z,8.50
2023-03-25T19:31:14.954Z,8.40
2023-03-25T19:33:42.071Z,8.30
2023-03-25T19:36:16.817Z,8.20
2023-03-25T19:38:45.145Z,8.10
2023-03-25T19:41:15.247Z,8.10
2023-03-25T19:43:44.077Z,8.10
2023-03-25T19:46:12.010Z,8.10
2023-03-25T19:48:40.106Z,8.00
2023-03-25T19:51:08.273Z,7.90
2023-03-25T19:53:36.619Z,7.80
2023-03-25T19:56:05.147Z,7.80
2023-03-25T19:58:34.955Z,7.80
2023-03-25T20:01:02.095Z,7.80
2023-03-25T20:03:32.867Z,7.80
2023-03-25T20:06:03.262Z,7.80
2023-03-25T20:08:31.703Z,7.70
2023-03-25T20:10:59.841Z,7.80
2023-03-25T20:13:36.623Z,7.80
2023-03-25T20:16:07.511Z,7.80
2023-03-25T20:18:36.092Z,7.80
2023-03-25T20:21:06.518Z,7.80
2023-03-25T20:23:34.757Z,7.80
2023-03-25T20:26:02.711Z,7.90
2023-03-25T20:28:31.154Z,7.90
2023-03-25T20:31:04.486Z,7.80
2023-03-25T20:33:33.172Z,7.80
2023-03-25T20:36:00.004Z,7.80
2023-03-25T20:38:26.879Z,7.80
2023-03-25T20:40:54.187Z,7.70
2023-03-25T20:43:21.014Z,7.70
2023-03-25T20:45:47.890Z,7.70
2023-03-25T20:48:14.712Z,7.60
2023-03-25T20:50:41.527Z,7.70
2023-03-25T20:53:08.586Z,7.70
2023-03-25T20:55:35.337Z,7.70
2023-03-25T20:58:02.045Z,7.70
2023-03-25T21:00:28.913Z,7.60
2023-03-25T21:02:56.168Z,7.60
2023-03-25T21:05:23.321Z,7.60
2023-03-25T21:07:50.204Z,7.60
2023-03-25T21:10:17.046Z,7.60
2023-03-25T21:12:45.137Z,7.60
2023-03-25T21:15:13.580Z,7.60
2023-03-25T21:17:41.423Z,7.50
2023-03-25T21:20:09.288Z,7.40
2023-03-25T21:22:44.219Z,7.40
2023-03-25T21:25:13.922Z,7.20
2023-03-25T21:27:41.377Z,7.10
2023-03-25T21:30:10.090Z,7.00
2023-03-25T21:32:39.114Z,6.90
2023-03-25T21:35:09.559Z,6.80
2023-03-25T21:37:38.067Z,6.80
2023-03-25T21:40:11.315Z,6.70
2023-03-25T21:42:41.532Z,6.70
2023-03-25T21:45:12.337Z,6.70
2023-03-25T21:47:41.809Z,6.70
2023-03-25T21:50:11.532Z,6.70
2023-03-25T21:52:40.737Z,6.70
2023-03-25T21:55:08.068Z,6.70
2023-03-25T21:57:36.166Z,6.70
2023-03-25T22:00:03.058Z,6.70
2023-03-25T22:02:30.990Z,6.70
2023-03-25T22:04:58.120Z,6.70
2023-03-25T22:07:28.313Z,6.70
2023-03-25T22:09:59.352Z,6.70
2023-03-25T22:12:27.204Z,6.70
2023-03-25T22:14:54.263Z,6.70
2023-03-25T22:17:22.571Z,6.70
2023-03-25T22:19:51.518Z,6.70
2023-03-25T22:22:23.510Z,6.70
2023-03-25T22:24:52.720Z,6.70
2023-03-25T22:27:19.462Z,6.70
2023-03-25T22:29:48.356Z,6.70
2023-03-25T22:32:18.630Z,6.70
2023-03-25T22:34:50.570Z,6.70
2023-03-25T22:37:19.010Z,6.70
2023-03-25T22:39:48.899Z,6.70
2023-03-25T22:42:17.389Z,6.80
2023-03-25T22:44:44.322Z,6.80
2023-03-25T22:47:12.726Z,6.80
2023-03-25T22:49:44.748Z,6.90
2023-03-25T22:52:11.606Z,6.90
2023-03-25T22:58:02.727Z,6.90
2023-03-25T23:00:29.445Z,6.90
2023-03-25T23:02:56.551Z,7.00
2023-03-25T23:05:23.324Z,7.00
2023-03-25T23:07:50.165Z,7.00
2023-03-25T23:10:16.865Z,7.00
2023-03-25T23:12:43.941Z,7.00
2023-03-25T23:15:12.213Z,7.00
2023-03-25T23:17:38.914Z,7.00
2023-03-25T23:20:07.544Z,7.00
2023-03-25T23:22:34.309Z,7.00
2023-03-25T23:25:02.487Z,7.00
2023-03-25T23:27:29.246Z,7.00
2023-03-25T23:29:57.199Z,7.00
2023-03-25T23:32:27.515Z,7.00
2023-03-25T23:34:57.931Z,7.00
2023-03-25T23:37:26.073Z,7.00
2023-03-25T23:39:54.454Z,7.00
2023-03-25T23:42:23.278Z,7.00
2023-03-25T23:45:03.365Z,7.00
2023-03-25T23:47:32.837Z,7.00
2023-03-25T23:50:01.035Z,7.00
2023-03-25T23:52:28.035Z,7.00
2023-03-25T23:54:59.111Z,7.00
2023-03-25T23:57:29.170Z,7.00
2023-03-25T23:59:59.462Z,7.00
